Latest Weather Observations for Mount Hotham Airport

IDV60801

Issued at 5:22 pm EST Saturday 20 July 2019 (issued every 10 minutes, with the page automatically refreshed every 10 minutes)

About weather observations | Map of weather stations | Latest weather observations for VIC | Other Formats
Station Details ID: 083055 Name: MOUNT HOTHAM AIRPORT Lat: -37.05 Lon: 147.33 Height: 1295.4 m
Data from the previous 72 hours. | See also: Recent months at Mount Hotham Airport
Date/Time
EST
Temp
°C
App
Temp
°C
Dew
Point
°C
Rel
Hum
%
Delta-T
°C
Wind Press
QNH
hPa
Press
MSL
hPa
Rain since
9am
mm
Dir  Spd
km/h
Gust
km/h
Spd
kts
Gust
kts
20/05:00pm 3.1 -1.5 -1.1 74 1.7 NW 13 19 7 10 1017.2 1019.1 0.0
20/04:30pm 4.5 -0.1 -0.7 69 2.1 NW 13 19 7 10 1017.3 1019.2 0.0
20/04:00pm 5.2 0.3 -0.8 65 2.4 NW 15 22 8 12 1017.6 1019.5 0.0
20/03:30pm 6.1 1.2 -0.4 63 2.7 NW 15 20 8 11 1017.8 1019.7 0.0
20/03:00pm 6.6 1.7 -0.6 60 3.0 WNW 15 20 8 11 1017.9 1019.8 0.0
20/02:30pm 6.9 2.7 -0.8 58 3.2 NNW 11 19 6 10 1018.0 1019.9 0.0
20/02:00pm 6.8 1.5 -0.9 58 3.2 NNW 17 24 9 13 1018.1 1020.0 0.0
20/01:30pm 7.0 0.8 -0.2 60 3.0 NW 22 30 12 16 1018.5 1020.4 0.0
20/01:00pm 7.6 1.8 0.1 59 3.2 NNW 20 30 11 16 1018.8 1020.7 0.0
20/12:30pm 6.6 0.7 -0.6 60 3.0 NW 20 30 11 16 1019.0 1021.0 0.0
20/12:00pm 6.8 1.2 -0.2 61 2.9 NW 19 28 10 15 1019.6 1021.6 0.0
20/11:30am 5.8 0.5 -0.5 64 2.6 NW 17 22 9 12 1020.2 1022.1 0.0
20/11:00am 5.3 0.4 -0.3 67 2.3 NNW 15 20 8 11 1020.5 1022.5 0.0
20/10:30am 4.5 -0.8 -0.7 69 2.1 NW 17 22 9 12 1020.9 1022.8 0.0
20/10:00am 3.4 -1.6 -1.3 71 1.9 NNW 15 24 8 13 1020.7 1022.7 0.0
20/09:30am 2.5 -1.7 -0.9 78 1.3 NNW 11 15 6 8 1020.7 1022.7 0.0
20/09:00am 1.8 -1.8 -2.0 76 1.4 N 7 11 4 6 1020.9 1022.8 0.0
20/08:30am 1.4 -2.9 -1.7 80 1.2 NW 11 17 6 9 1020.7 1022.7 0.0
20/08:00am 0.5 -5.4 -1.9 84 0.9 NW 19 26 10 14 1020.7 1022.7 0.0
20/07:30am -0.8 -6.8 -2.8 86 0.7 NW 19 26 10 14 1020.7 1022.7 0.0
20/07:00am -0.6 -6.6 -3.3 82 0.9 NW 19 28 10 15 1020.5 1022.5 0.0
20/06:30am -2.0 -6.6 -4.0 86 0.6 NNW 11 17 6 9 1020.3 1022.3 0.0
20/06:00am -2.9 -7.4 -6.4 77 1.0 NNW 9 13 5 7 1020.1 1022.0 0.0
20/05:30am -1.8 -6.6 -6.0 73 1.3 N 11 15 6 8 1019.9 1021.9 0.0
20/05:00am -1.8 -6.2 -6.3 71 1.4 NNW 9 11 5 6 1019.8 1021.8 0.0
20/04:30am -1.0 -6.3 -6.9 64 1.9 NNW 13 17 7 9 1019.9 1021.9 0.0
20/04:00am 0.0 -5.0 -8.2 54 2.6 NNW 11 15 6 8 1020.1 1022.0 0.0
20/03:30am -0.1 -4.8 -9.8 48 3.0 NW 9 13 5 7 1020.3 1022.3 0.0
20/03:00am 0.1 -4.6 -8.8 51 2.8 NNW 9 13 5 7 1020.5 1022.5 0.0
20/02:30am -1.1 -5.7 -8.3 58 2.2 NW 9 11 5 6 1020.7 1022.7 0.0
20/02:00am -1.2 -5.4 -7.5 62 2.0 NW 7 13 4 7 1020.9 1022.8 0.0
20/01:30am -0.5 -5.2 -8.6 54 2.5 NNW 9 11 5 6 1020.9 1022.8 0.0
20/01:00am 2.7 -1.6 -9.2 41 4.0 NNW 7 9 4 5 1020.7 1022.7 0.0
20/12:30am -0.4 -5.6 -5.8 67 1.8 NNW 13 15 7 8 1021.0 1023.0 0.0
20/12:00am 0.5 -4.6 -9.8 46 3.2 NW 11 15 6 8 1021.2 1023.2 0.0
 
Date/Time
EST
Temp
°C
App
Temp
°C
Dew
Point
°C
Rel
Hum
%
Delta-T
°C
Wind Press
QNH
hPa
Press
MSL
hPa
Rain since
9am
mm
Dir  Spd
km/h
Gust
km/h
Spd
kts
Gust
kts
19/11:30pm 0.4 -6.0 -7.3 56 2.6 NW 19 24 10 13 1021.2 1023.2 0.0
19/11:00pm -2.0 -6.4 -5.8 75 1.2 NW 9 13 5 7 1021.2 1023.2 0.0
19/10:30pm -3.0 -6.9 -4.3 91 0.3 NW 7 9 4 5 1021.3 1023.3 0.0
19/10:00pm -1.5 -5.9 -2.6 92 0.3 N 11 15 6 8 1021.4 1023.4 0.0
19/09:30pm -0.7 -6.5 -1.7 93 0.3 NNW 19 24 10 13 1021.4 1023.4 0.0
19/09:00pm -0.8 -6.2 -1.6 94 0.3 NNW 17 20 9 11 1021.3 1023.3 0.0
19/08:30pm -1.0 -5.0 -2.0 93 0.3 NW 9 19 5 10 1021.3 1023.3 0.0
19/08:00pm -1.3 -6.6 -3.3 86 0.7 NW 15 17 8 9 1021.3 1023.3 0.0
19/07:30pm -1.0 -5.6 -4.3 78 1.1 NW 11 17 6 9 1021.2 1023.2 0.0
19/07:00pm 0.1 -5.2 -3.8 75 1.4 WNW 15 17 8 9 1020.7 1022.7 0.0
19/06:30pm -1.3 -5.1 -4.1 81 0.9 NW 7 9 4 5 1020.5 1022.5 0.0
19/06:00pm 1.3 -2.2 -2.6 75 1.5 WNW 6 9 3 5 1020.4 1022.4 0.0
19/05:30pm 2.0 -1.0 -2.0 75 1.5 WNW 4 6 2 3 1020.1 1022.0 0.0
19/05:00pm 4.5 0.9 -2.1 62 2.6 NNW 7 9 4 5 1019.8 1021.8 0.0
19/04:30pm 6.5 2.9 -1.9 55 3.4 NW 7 11 4 6 1019.6 1021.6 0.0
19/04:00pm 7.8 2.8 -7.8 32 5.5 WNW 11 17 6 9 1019.5 1021.4 0.0
19/03:30pm 8.9 4.0 -6.9 32 5.8 W 11 17 6 9 1019.3 1021.2 0.0
19/03:00pm 9.3 4.0 -7.8 29 6.2 W 13 24 7 13 1018.9 1020.9 0.0
19/02:30pm 9.8 5.2 -7.4 29 6.3 NW 9 17 5 9 1018.9 1020.9 0.0
19/02:00pm 9.9 5.4 -7.3 29 6.3 W 9 15 5 8 1018.6 1020.5 0.0
19/01:30pm 9.7 4.7 -7.9 28 6.4 SSW 11 19 6 10 1018.7 1020.6 0.0
19/01:00pm 9.8 4.8 -7.8 28 6.4 SW 11 19 6 10 1018.6 1020.5 0.0
19/12:30pm 9.8 5.2 -7.4 29 6.3 W 9 20 5 11 1018.9 1020.9 0.0
19/12:00pm 9.4 5.4 -6.0 33 5.8 NW 7 17 4 9 1019.2 1021.1 0.0
19/11:30am 9.0 5.3 -2.6 44 4.7 NNW 7 11 4 6 1019.3 1021.2 0.0
19/11:00am 8.2 4.7 -3.0 45 4.5 N 6 9 3 5 1019.3 1021.2 0.0
19/10:30am 7.0 2.9 -0.4 59 3.1 N 11 15 6 8 1019.3 1021.2 0.0
19/10:00am 6.2 2.1 -0.3 63 2.7 NNW 11 15 6 8 1019.2 1021.1 0.0
19/09:30am 5.7 1.9 -0.6 64 2.6 NNW 9 13 5 7 1018.8 1020.7 0.0
19/09:00am 5.0 0.4 -1.0 65 2.4 WNW 13 20 7 11 1018.6 1020.5 0.0
19/08:30am 3.4 0.3 0.3 80 1.3 SE 6 7 3 4 1018.2 1020.2 0.0
19/08:00am 1.9 -1.8 0.1 88 0.7 NE 9 13 5 7 1017.7 1019.6 0.0
19/07:30am 1.1 -2.4 -1.0 86 0.8 NNE 7 13 4 7 1017.6 1019.5 0.0
19/07:00am 1.9 -1.9 -0.5 84 1.0 NNW 9 24 5 13 1017.3 1019.2 0.0
19/06:30am 2.5 -3.3 0.2 85 0.9 WNW 20 35 11 19 1017.1 1019.0 0.0
19/06:00am 2.7 -3.4 0.1 83 1.1 W 22 39 12 21 1016.5 1018.4 0.0
19/05:30am 2.3 -4.3 -0.1 84 1.0 WNW 24 43 13 23 1016.1 1017.9 0.0
19/05:24am 2.3 -4.6 0.0 85 0.9 WNW 26 37 14 20 1016.0 1017.8 0.0
19/05:00am 2.2 -4.8 -0.2 84 1.0 WNW 26 43 14 23 1015.9 1017.7 0.0
19/04:48am 2.2 -5.1 -0.2 84 1.0 WNW 28 46 15 25 1016.0 1017.8 0.0
19/04:43am 2.5 -4.4 -0.1 83 1.0 WNW 26 46 14 25 1016.0 1017.8 0.0
19/04:30am 2.5 -2.0 -0.1 83 1.0 W 13 28 7 15 1015.9 1017.7 0.0
19/04:00am 2.1 -3.2 -0.3 84 1.0 NW 17 33 9 18 1015.4 1017.2 0.0
19/03:30am 2.6 -1.9 0.0 83 1.1 WNW 13 32 7 17 1015.7 1017.6 0.0
19/03:00am 2.4 -2.4 0.1 85 0.9 WNW 15 33 8 18 1015.6 1017.5 0.0
19/02:30am 1.5 -2.7 -0.6 86 0.8 NNW 11 24 6 13 1015.6 1017.5 0.0
19/02:00am 2.0 -3.7 -0.4 84 1.0 NW 19 41 10 22 1015.5 1017.3 0.0
19/01:30am 2.0 -4.6 -0.4 84 1.0 WNW 24 39 13 21 1015.4 1017.2 0.0
19/01:17am 2.2 -5.5 -0.4 83 1.0 WNW 30 48 16 26 1015.2 1017.0 0.0
19/01:13am 2.5 -4.5 -0.3 82 1.1 WNW 26 48 14 26 1015.3 1017.1 0.0
19/01:00am 2.1 -2.8 -0.3 84 1.0 WNW 15 24 8 13 1015.3 1017.1 0.0
19/12:51am 1.9 -4.3 -0.5 84 1.0 WNW 22 33 12 18 1015.4 1017.2 0.0
19/12:30am 1.2 -5.1 -0.9 86 0.8 NW 22 33 12 18 1015.1 1016.9 0.0
19/12:00am 0.5 -5.9 -1.7 85 0.9 NW 22 33 12 18 1015.5 1017.3 0.0
 
Date/Time
EST
Temp
°C
App
Temp
°C
Dew
Point
°C
Rel
Hum
%
Delta-T
°C
Wind Press
QNH
hPa
Press
MSL
hPa
Rain since
9am
mm
Dir  Spd
km/h
Gust
km/h
Spd
kts
Gust
kts
18/11:30pm 0.5 -6.3 -1.6 86 0.8 NW 24 37 13 20 1015.4 1017.2 0.0
18/11:17pm 0.5 -6.3 -1.7 85 0.9 WNW 24 39 13 21 1015.6 1017.5 0.0
18/11:00pm 0.3 -6.9 -1.8 86 0.8 NW 26 44 14 24 1015.4 1017.2 0.0
18/10:43pm 0.4 -7.2 -2.0 84 0.9 NW 28 41 15 22 1015.6 1017.5 0.0
18/10:30pm 0.2 -6.3 -2.5 82 1.0 NW 22 33 12 18 1015.9 1017.7 0.0
18/10:00pm -0.1 -6.3 -3.3 79 1.2 NW 20 26 11 14 1016.1 1017.9 0.0
18/09:30pm -0.4 -5.8 -4.1 76 1.3 NW 15 20 8 11 1015.9 1017.7 0.0
18/09:00pm 0.1 -6.1 -4.7 70 1.7 NW 19 32 10 17 1015.7 1017.6 0.0
18/08:46pm 0.5 -6.3 -5.3 65 2.0 NW 22 33 12 18 1015.5 1017.3 0.0
18/08:30pm -0.3 -4.2 -4.4 74 1.4 NW 7 11 4 6 1015.4 1017.2 0.0
18/08:00pm 0.5 -5.2 -3.6 74 1.5 NNW 17 22 9 12 1015.3 1017.1 0.0
18/07:30pm 0.7 -4.2 -3.2 75 1.5 NNW 13 20 7 11 1015.5 1017.3 0.0
18/07:00pm 0.6 -5.6 -3.1 76 1.4 NW 20 28 11 15 1015.4 1017.2 0.0
18/06:30pm 0.8 -7.0 -3.5 73 1.6 NW 28 37 15 20 1015.4 1017.2 0.0
18/06:00pm 0.5 -6.1 -3.2 76 1.4 WNW 22 28 12 15 1015.3 1017.1 0.0
18/05:30pm 1.2 -5.3 -2.5 76 1.5 NW 22 28 12 15 1015.3 1017.1 0.0
18/05:00pm 1.4 -4.6 -2.7 74 1.6 NW 19 26 10 14 1015.3 1017.1 0.0
18/04:30pm 2.6 -1.8 -2.7 68 2.0 NNW 11 17 6 9 1015.0 1016.8 0.0
18/04:00pm 3.6 -2.0 -2.6 64 2.4 NNW 17 22 9 12 1015.1 1016.9 0.0
18/03:30pm 6.6 1.1 -5.7 41 4.5 W 15 24 8 13 1014.7 1016.5 0.0
18/03:00pm 6.8 2.2 -4.0 46 4.1 NW 11 17 6 9 1014.6 1016.4 0.0
18/02:30pm 7.2 1.8 -8.0 33 5.3 WNW 13 20 7 11 1014.4 1016.2 0.0
18/02:00pm 7.7 2.1 -6.0 37 5.1 W 15 24 8 13 1014.7 1016.5 0.0
18/01:30pm 7.9 3.8 -6.6 35 5.3 NNE 7 11 4 6 1014.7 1016.5 0.0
18/01:00pm 6.7 1.9 -6.3 39 4.7 W 11 17 6 9 1014.6 1016.4 0.0
18/12:30pm 7.3 3.3 -5.4 40 4.7 W 7 15 4 8 1015.2 1017.0 0.0
18/12:00pm 7.0 2.6 -5.7 40 4.7 SSW 9 17 5 9 1015.3 1017.1 0.0
18/11:30am 6.8 2.5 -4.6 44 4.3 NW 9 19 5 10 1015.7 1017.6 0.0
18/11:00am 6.2 2.4 -3.7 49 3.8 WSW 7 11 4 6 1016.1 1017.9 0.0
18/10:30am 5.0 1.3 -3.3 55 3.2 W 7 13 4 7 1016.1 1017.9 0.0
18/10:00am 4.5 1.0 -2.8 59 2.8 WSW 6 9 3 5 1016.4 1018.3 0.0
18/09:30am 3.2 -1.6 -2.7 65 2.2 W 13 19 7 10 1015.9 1017.7 0.0
18/09:00am 2.2 -1.2 -1.8 75 1.5 NNW 6 9 3 5 1015.6 1017.5 0.0
18/08:30am 0.9 -2.5 -2.3 79 1.3 N 6 9 3 5 1015.3 1017.1 0.0
18/08:00am 0.2 -3.9 -3.3 77 1.3 WNW 9 15 5 8 1015.1 1016.9 0.0
18/07:30am -0.5 -5.4 -3.3 81 1.0 WSW 13 20 7 11 1014.7 1016.5 0.0
18/07:00am -0.8 -5.0 -3.6 81 1.0 WSW 9 15 5 8 1014.5 1016.3 0.0
18/06:30am 0.0 -4.5 -3.4 78 1.2 SSW 11 19 6 10 1014.0 1015.8 0.0
18/06:00am 0.2 -5.1 -3.3 77 1.3 WSW 15 22 8 12 1013.4 1015.1 0.0
18/05:30am 0.2 -6.0 -3.3 77 1.3 W 20 26 11 14 1012.7 1014.4 0.0
18/05:00am 0.0 -5.3 -3.5 77 1.3 W 15 20 8 11 1013.0 1014.8 0.0
18/04:30am 0.2 -5.5 -3.5 76 1.4 W 17 24 9 13 1012.9 1014.7 0.0
18/04:00am 0.5 -4.4 -3.2 76 1.4 WSW 13 26 7 14 1012.9 1014.7 0.0
18/03:30am 0.6 -3.6 -3.5 74 1.5 W 9 15 5 8 1012.7 1014.4 0.0
18/03:00am 0.3 -4.5 -2.9 79 1.2 W 13 19 7 10 1012.6 1014.3 0.0
18/02:30am 0.9 -5.0 -2.5 78 1.3 W 19 28 10 15 1012.6 1014.3 0.0
18/02:00am 1.1 -6.2 -2.6 76 1.4 W 26 39 14 21 1012.6 1014.3 0.0
18/01:30am 1.0 -3.8 -2.4 78 1.3 WSW 13 24 7 13 1012.7 1014.4 0.0
18/01:00am 1.3 -4.2 -1.9 79 1.2 WSW 17 28 9 15 1012.2 1014.0 0.0
18/12:30am 1.2 -4.7 -1.9 80 1.2 SW 19 33 10 18 1012.3 1014.1 0.0
18/12:00am 1.5 -3.6 -1.7 79 1.2 WSW 15 30 8 16 1012.5 1014.2 0.0
 
Date/Time
EST
Temp
°C
App
Temp
°C
Dew
Point
°C
Rel
Hum
%
Delta-T
°C
Wind Press
QNH
hPa
Press
MSL
hPa
Rain since
9am
mm
Dir  Spd
km/h
Gust
km/h
Spd
kts
Gust
kts
17/11:30pm 1.6 -2.6 -1.0 83 1.0 WSW 11 20 6 11 1012.7 1014.4 0.0
17/11:00pm 2.0 -3.7 -0.4 84 1.0 W 19 33 10 18 1012.2 1014.0 0.0
17/10:43pm 1.8 -3.5 -0.3 86 0.8 W 17 28 9 15 1012.3 1014.1 0.0
17/10:30pm 1.9 -1.8 -0.2 86 0.8 WSW 9 20 5 11 1012.5 1014.2 0.0
17/10:00pm 2.4 -2.4 0.1 85 0.9 W 15 26 8 14 1012.7 1014.4 0.0
17/09:30pm 2.4 -3.3 0.3 86 0.9 W 20 33 11 18 1012.5 1014.2 0.0
17/09:00pm 2.1 -2.3 0.2 87 0.8 W 13 20 7 11 1012.3 1014.1 0.0
17/08:39pm 2.0 -3.6 -0.2 85 0.9 W 19 28 10 15 1012.6 1014.3 0.0
17/08:30pm 2.0 -3.2 -0.2 85 0.9 W 17 30 9 16 1012.3 1014.1 0.0
17/08:00pm 2.2 -3.5 0.3 87 0.8 W 20 35 11 19 1012.0 1013.7 0.0
17/07:33pm 2.3 -2.8 0.5 88 0.7 W 17 32 9 17 1012.1 1013.8 0.0
17/07:30pm 2.5 -2.6 0.7 88 0.7 W 17 32 9 17 1012.2 1014.0 0.0
17/07:00pm 2.4 -4.8 0.8 89 0.7 WNW 28 43 15 23 1011.8 1013.5 0.0
17/06:30pm 2.1 -5.1 0.9 92 0.5 NW 28 43 15 23 1011.1 1012.8 0.0
17/06:10pm 2.1 -5.1 0.6 90 0.6 WNW 28 39 15 21 1010.9 1012.6 0.0
17/06:06pm 2.1 -5.5 0.5 89 0.7 WNW 30 44 16 24 1010.9 1012.6 0.0
17/06:00pm 2.4 -5.6 0.6 88 0.7 WNW 32 44 17 24 1010.6 1012.3 0.0
17/05:38pm 2.2 -5.7 0.9 91 0.5 NW 32 50 17 27 1010.5 1012.2 0.0
17/05:30pm 2.1 -5.8 0.8 91 0.5 NW 32 48 17 26 1010.6 1012.3 0.0

Other formats

Comma delimited format used in spreadsheet applications
http://www.bom.gov.au/fwo/IDV60801/IDV60801.94905.axf

JavaScript Object Notation format (JSON) in row-major order
http://www.bom.gov.au/fwo/IDV60801/IDV60801.94905.json

Data quality

Most of these data are generated automatically and are frequently updated. Quality checks on data are not normally performed. It is possible for incorrect values to appear. Refer to information at About Latest Weather Observations and please check the disclaimer before using these data.